Paramount Helsinki — 2CWB3 — position and weather

sailwx.info

Track history (hours):
 
Tides and Currents Weather Stations Pressure Air Temp Water Temp Dewpoint Dewpoint Depression Visibility Wind Speed Wind Dir Waves Ship Positions

Paramount Helsinki

Last reported at 2016-Apr-29 12:28 UTC. Time now 2016-May-24 09:58 UTC.
Position N 29°39' W 089°57'.
Warning: this ship's position is 24 days out of date.

Length 250 m; draft 10.8 m.

Type: Ship. MMSI: 235076275.

Date/timePositionNaut miles runAvg speedWind from/ knotsBaromVisibWave heightAir tempDewpointWater temp
2016-Apr-29 12:28N 29°39' W 089°57'1112.3
2016-Apr-29 11:33N 29°50' W 089°59'5 5.4
2016-Apr-29 10:33N 29°56' W 089°59'8 8.1
2016-Apr-29 09:33N 29°57' W 090°08'1010.0
2016-Apr-29 08:33N 29°56' W 090°20'19 9.8
2016-Apr-29 06:34N 30°02' W 090°41'21 0.4
2016-Apr-27 04:10N 29°57' W 090°18'5 7.3
2016-Apr-27 03:33N 29°56' W 090°13'7 6.7
2016-Apr-27 02:33N 29°55' W 090°06'6 6.0
2016-Apr-27 01:33N 29°56' W 089°59'4 3.5
2016-Apr-27 00:33N 29°52' W 089°58'10 9.8
2016-Apr-26 23:33N 29°42' W 089°59'201 6.3
2016-Apr-25 15:33N 29°39' W 093°50'15 7.4
2016-Apr-25 13:31N 29°54' W 093°55'5 5.7
2016-Apr-25 12:33N 29°59' W 093°53'3 0.1
2016-Apr-24 13:31N 29°60' W 093°56'0 0.0
2016-Apr-24 00:28N 29°60' W 093°56'2 1.8
2016-Apr-23 23:33N 29°59' W 093°54'4 4.0
2016-Apr-23 22:33N 29°55' W 093°53'7 6.6
2016-Apr-23 21:34N 29°50' W 093°57'7 6.4
2016-Apr-23 20:31N 29°45' W 093°53'9 8.9
2016-Apr-23 19:28N 29°36' W 093°48'1111.2
2016-Apr-23 18:28N 29°28' W 093°40'4 4.3
2016-Apr-23 17:29N 29°23' W 093°39'2 0.4
2016-Apr-23 13:21N 29°25' W 093°38'0 0.0
2016-Apr-23 12:33N 29°25' W 093°38'0 0.1
2016-Apr-23 11:30N 29°25' W 093°38'0 0.1
2016-Apr-23 10:33N 29°25' W 093°38'21 9.0
2016-Apr-23 08:15N 29°04' W 093°40'913.7
2016-Apr-23 07:33N 28°55' W 093°40'  
Track history (hours):
 
Tides and Currents Weather Stations Pressure Air Temp Water Temp Dewpoint Dewpoint Depression Visibility Wind Speed Wind Dir Waves Ship Positions

Paramount Helsinki

Last reported at 2016-Apr-29 12:28 UTC. Time now 2016-May-24 09:58 UTC.
Position N 29°39' W 089°57'.
Warning: this ship's position is 24 days out of date.

Length 250 m; draft 10.8 m.

Type: Ship. MMSI: 235076275.

Date/timePositionNaut miles runAvg speedWind from/ knotsBaromVisibWave heightAir tempDewpointWater temp
2016-Apr-29 12:28N 29°39' W 089°57'1112.3
2016-Apr-29 11:33N 29°50' W 089°59'5 5.4
2016-Apr-29 10:33N 29°56' W 089°59'8 8.1
2016-Apr-29 09:33N 29°57' W 090°08'1010.0
2016-Apr-29 08:33N 29°56' W 090°20'19 9.8
2016-Apr-29 06:34N 30°02' W 090°41'21 0.4
2016-Apr-27 04:10N 29°57' W 090°18'5 7.3
2016-Apr-27 03:33N 29°56' W 090°13'7 6.7
2016-Apr-27 02:33N 29°55' W 090°06'6 6.0
2016-Apr-27 01:33N 29°56' W 089°59'4 3.5
2016-Apr-27 00:33N 29°52' W 089°58'10 9.8
2016-Apr-26 23:33N 29°42' W 089°59'201 6.3
2016-Apr-25 15:33N 29°39' W 093°50'15 7.4
2016-Apr-25 13:31N 29°54' W 093°55'5 5.7
2016-Apr-25 12:33N 29°59' W 093°53'3 0.1
2016-Apr-24 13:31N 29°60' W 093°56'0 0.0
2016-Apr-24 00:28N 29°60' W 093°56'2 1.8
2016-Apr-23 23:33N 29°59' W 093°54'4 4.0
2016-Apr-23 22:33N 29°55' W 093°53'7 6.6
2016-Apr-23 21:34N 29°50' W 093°57'7 6.4
2016-Apr-23 20:31N 29°45' W 093°53'9 8.9
2016-Apr-23 19:28N 29°36' W 093°48'1111.2
2016-Apr-23 18:28N 29°28' W 093°40'4 4.3
2016-Apr-23 17:29N 29°23' W 093°39'2 0.4
2016-Apr-23 13:21N 29°25' W 093°38'0 0.0
2016-Apr-23 12:33N 29°25' W 093°38'0 0.1
2016-Apr-23 11:30N 29°25' W 093°38'0 0.1
2016-Apr-23 10:33N 29°25' W 093°38'21 9.0
2016-Apr-23 08:15N 29°04' W 093°40'913.7
2016-Apr-23 07:33N 28°55' W 093°40'  

Dump ship's entire track history